ENBR/BGO METAR and TAF weather

Enter ICAO airport designator
Station Type Date Time Source
ENBR METAR 2018/10/16 20:20 UTC NOAA

ENBR 162020Z 18018KT 9999 -DZ FEW006 SCT010 BKN020 11/08 Q1011 RMK WIND 1200FT 16027KT


Station Type Date Time Source
ENBR Decoded METAR 2018/10/16 20:20 UTC NOAA

Bergen / Flesland, Norway (ENBR) 60-17N 005-14E 50M
Oct 16, 2018 - 04:20 PM EDT / 2018.10.16 2020 UTC
Wind: from the S (180 degrees) at 21 MPH (18 KT):0
Visibility: greater than 7 mile(s):0
Sky conditions: mostly cloudy
Weather: light drizzle
Temperature: 51 F (11 C)
Dew Point: 46 F (8 C)
Relative Humidity: 81%
Pressure (altimeter): 29.85 in. Hg (1011 hPa)
ob: ENBR 162020Z 18018KT 9999 -DZ FEW006 SCT010 BKN020 11/08 Q1011 RMK WIND 1200FT 16027KT
cycle: 20

Station Type Date Time Source
ENBR TAF 2018/10/16 18:57 UTC NOAA

TAF ENBR 161700Z 1618/1718 17018KT 9999 FEW015 BKN035
TEMPO 1618/1703 17020G30KT
BECMG 1620/1623 4000 -RADZ BR BKN005
TEMPO 1623/1709 1200 RADZ BR BKN002
BECMG 1709/1712 24010KT BKN010
BECMG 1712/1715 FEW010 BKN020


Example: see airport list